Time;durP1;ratioP1;P1;durP2;ratioP2;P2;SDS_P1;SDS_P2;PMS_P1;PMS_P2;Temp;Humidity;BMP_temperature;BMP_pressure;BME280_temperature;BME280_humidity;BME280_pressure;Samples;Min_cycle;Max_cycle;Signal;HPM_P1;HPM_P2
2023/10/11 00:01:01;;;;;;;;;;;19.60;61.40;;;;;;5063473;28;19913;-81
2023/10/11 00:05:53;;;;;;;;;;;19.60;61.60;;;;;;5068347;28;19912;-83
2023/10/11 00:08:19;;;;;;;;;;;19.60;62.00;;;;;;5061644;28;19920;-81
2023/10/11 00:10:54;;;;;;;;;;;19.50;62.10;;;;;;5064763;28;20033;-82
2023/10/11 00:13:21;;;;;;;;;;;19.50;62.30;;;;;;5063242;28;19919;-79
2023/10/11 00:15:49;;;;;;;;;;;19.40;62.70;;;;;;5065248;28;20007;-81
2023/10/11 00:18:26;;;;;;;;;;;19.40;62.70;;;;;;5066433;28;20343;-81
2023/10/11 00:20:52;;;;;;;;;;;19.50;62.80;;;;;;5064015;28;19913;-82
2023/10/11 00:23:22;;;;;;;;;;;19.40;63.00;;;;;;5065533;28;19912;-80
2023/10/11 00:25:52;;;;;;;;;;;19.40;62.80;;;;;;5071967;28;19938;-80
2023/10/11 00:28:22;;;;;;;;;;;19.40;63.20;;;;;;5067181;28;19913;-82
2023/10/11 00:30:50;;;;;;;;;;;19.40;63.00;;;;;;5066625;28;20381;-80
2023/10/11 00:33:15;;;;;;;;;;;19.40;62.80;;;;;;5063475;28;19959;-81
2023/10/11 00:35:44;;;;;;;;;;;19.40;63.10;;;;;;5059021;28;20670;-81
2023/10/11 00:38:11;;;;;;;;;;;19.50;63.00;;;;;;5061214;28;19912;-81
2023/10/11 00:40:37;;;;;;;;;;;19.30;63.30;;;;;;5061200;28;20408;-81
2023/10/11 00:43:02;;;;;;;;;;;19.30;63.70;;;;;;5071291;28;19913;-81
2023/10/11 00:45:30;;;;;;;;;;;19.30;63.60;;;;;;5073953;28;20370;-81
2023/10/11 00:48:01;;;;;;;;;;;19.30;63.80;;;;;;5070557;28;19924;-80
2023/10/11 00:50:30;;;;;;;;;;;19.20;64.00;;;;;;5078354;28;20356;-82
2023/10/11 00:52:57;;;;;;;;;;;19.40;63.40;;;;;;5069638;28;19924;-82
2023/10/11 00:55:23;;;;;;;;;;;19.30;63.70;;;;;;5069635;28;20019;-80
2023/10/11 00:57:49;;;;;;;;;;;19.30;64.00;;;;;;5065640;28;19970;-82
2023/10/11 01:00:21;;;;;;;;;;;19.30;63.70;;;;;;5070195;28;19939;-81
2023/10/11 01:02:48;;;;;;;;;;;19.20;63.80;;;;;;5078372;28;19920;-82
2023/10/11 01:05:14;;;;;;;;;;;19.30;63.70;;;;;;5064747;28;19925;-78
2023/10/11 01:07:40;;;;;;;;;;;19.30;63.60;;;;;;5065899;28;19917;-79
2023/10/11 01:10:06;;;;;;;;;;;19.30;63.70;;;;;;5062681;28;19963;-81
2023/10/11 01:12:32;;;;;;;;;;;19.30;63.80;;;;;;5066419;28;19916;-81
2023/10/11 01:14:58;;;;;;;;;;;19.30;64.00;;;;;;5076380;28;19917;-81
2023/10/11 01:17:31;;;;;;;;;;;19.20;64.10;;;;;;5075129;28;19909;-83
2023/10/11 01:20:00;;;;;;;;;;;19.30;64.00;;;;;;5070031;28;19952;-81
2023/10/11 01:22:28;;;;;;;;;;;19.30;64.00;;;;;;5068698;28;19912;-81
2023/10/11 01:24:55;;;;;;;;;;;19.30;63.80;;;;;;5061741;28;20023;-81
2023/10/11 01:27:30;;;;;;;;;;;19.30;64.00;;;;;;5066274;28;19920;-83
2023/10/11 01:29:57;;;;;;;;;;;19.20;64.10;;;;;;5078490;28;19909;-81
2023/10/11 01:32:23;;;;;;;;;;;19.20;64.30;;;;;;5077372;28;19908;-81
2023/10/11 01:34:48;;;;;;;;;;;19.10;64.30;;;;;;5075126;28;19935;-81
2023/10/11 01:37:14;;;;;;;;;;;19.10;64.50;;;;;;5069996;28;19912;-80
2023/10/11 01:39:39;;;;;;;;;;;19.10;64.60;;;;;;5066344;28;19923;-81
2023/10/11 01:42:04;;;;;;;;;;;19.10;64.70;;;;;;5071171;28;19912;-81
2023/10/11 01:44:31;;;;;;;;;;;19.10;64.60;;;;;;5061995;28;19978;-80
2023/10/11 01:46:57;;;;;;;;;;;19.10;64.90;;;;;;5060436;28;19913;-81
2023/10/11 01:49:23;;;;;;;;;;;19.00;64.90;;;;;;5065926;28;20041;-80
2023/10/11 01:51:48;;;;;;;;;;;19.00;65.20;;;;;;5069920;28;19970;-80
2023/10/11 01:54:15;;;;;;;;;;;19.00;65.10;;;;;;5064613;28;19952;-80
2023/10/11 01:56:45;;;;;;;;;;;19.00;65.20;;;;;;5066236;28;19970;-81
2023/10/11 01:59:12;;;;;;;;;;;19.00;65.30;;;;;;5063968;28;20382;-81
2023/10/11 02:01:40;;;;;;;;;;;19.00;65.20;;;;;;5061975;28;19999;-81
2023/10/11 02:04:17;;;;;;;;;;;19.10;65.30;;;;;;5067295;28;19923;-82
2023/10/11 02:06:43;;;;;;;;;;;19.00;65.50;;;;;;5070251;28;19927;-80
2023/10/11 02:09:09;;;;;;;;;;;19.00;65.70;;;;;;5064521;28;19909;-82
2023/10/11 02:11:35;;;;;;;;;;;19.00;65.60;;;;;;5061229;28;19939;-81
2023/10/11 02:14:01;;;;;;;;;;;19.00;65.80;;;;;;5067881;28;19924;-82
2023/10/11 02:16:28;;;;;;;;;;;18.90;65.40;;;;;;5071981;28;19913;-81
2023/10/11 02:18:58;;;;;;;;;;;19.00;65.50;;;;;;5068530;28;19962;-81
2023/10/11 02:21:29;;;;;;;;;;;19.00;64.90;;;;;;5077839;28;19999;-81
2023/10/11 02:23:56;;;;;;;;;;;19.10;64.20;;;;;;5068465;28;20261;-82
2023/10/11 02:26:28;;;;;;;;;;;19.10;64.20;;;;;;5078545;28;19921;-82
2023/10/11 02:28:54;;;;;;;;;;;19.00;64.50;;;;;;5066354;28;19912;-81
2023/10/11 02:31:26;;;;;;;;;;;19.00;64.30;;;;;;5070541;28;20385;-81
2023/10/11 02:33:52;;;;;;;;;;;19.10;64.30;;;;;;5064009;28;19916;-82
2023/10/11 02:36:18;;;;;;;;;;;19.00;64.70;;;;;;5069833;28;19921;-82
2023/10/11 02:38:47;;;;;;;;;;;18.90;65.10;;;;;;5064917;28;19917;-81
2023/10/11 02:41:13;;;;;;;;;;;19.00;64.50;;;;;;5066899;28;19920;-81
2023/10/11 02:43:48;;;;;;;;;;;19.00;64.40;;;;;;5064033;28;19924;-82
2023/10/11 02:46:14;;;;;;;;;;;19.00;64.20;;;;;;5068116;28;20457;-81
2023/10/11 02:48:46;;;;;;;;;;;19.00;64.10;;;;;;5068764;28;19912;-82
2023/10/11 02:51:17;;;;;;;;;;;19.00;63.70;;;;;;5074944;28;19920;-81
2023/10/11 02:53:43;;;;;;;;;;;18.90;63.80;;;;;;5068904;28;19916;-82
2023/10/11 02:56:09;;;;;;;;;;;18.90;64.00;;;;;;5078337;28;20094;-82
2023/10/11 02:58:38;;;;;;;;;;;18.90;63.90;;;;;;5079722;28;19965;-83
2023/10/11 03:01:10;;;;;;;;;;;18.80;64.00;;;;;;5069083;28;19913;-81
2023/10/11 03:03:38;;;;;;;;;;;18.80;63.90;;;;;;5075672;28;19923;-80
2023/10/11 03:06:07;;;;;;;;;;;18.90;63.70;;;;;;5074950;28;19916;-80
2023/10/11 03:08:33;;;;;;;;;;;18.80;63.90;;;;;;5074678;28;19920;-81
2023/10/11 03:11:04;;;;;;;;;;;18.80;64.00;;;;;;5073427;28;19916;-82
2023/10/11 03:13:30;;;;;;;;;;;18.80;64.00;;;;;;5074653;28;19966;-81
2023/10/11 03:15:57;;;;;;;;;;;18.80;64.20;;;;;;5069791;28;19920;-82
2023/10/11 03:18:25;;;;;;;;;;;18.70;64.10;;;;;;5068495;28;19913;-81
2023/10/11 03:20:55;;;;;;;;;;;18.70;64.10;;;;;;5061818;28;19912;-81
2023/10/11 03:23:27;;;;;;;;;;;18.80;63.90;;;;;;5066299;28;19913;-81
2023/10/11 03:25:53;;;;;;;;;;;18.80;63.90;;;;;;5070147;28;19931;-83
2023/10/11 03:28:26;;;;;;;;;;;18.60;64.20;;;;;;5075323;28;19912;-82
2023/10/11 03:30:52;;;;;;;;;;;18.50;64.90;;;;;;5068323;28;19912;-81
2023/10/11 03:33:17;;;;;;;;;;;18.50;64.80;;;;;;5075780;28;19908;-81
2023/10/11 03:35:44;;;;;;;;;;;18.50;64.60;;;;;;5076078;28;19999;-81
2023/10/11 03:38:17;;;;;;;;;;;18.50;64.70;;;;;;5073610;28;19915;-82
2023/10/11 03:40:55;;;;;;;;;;;18.50;64.70;;;;;;5071693;28;19917;-83
2023/10/11 03:43:20;;;;;;;;;;;18.40;64.90;;;;;;5073546;28;19909;-81
2023/10/11 03:45:56;;;;;;;;;;;18.40;65.10;;;;;;5071742;28;19917;-81
2023/10/11 03:48:22;;;;;;;;;;;18.30;65.40;;;;;;5078012;28;19912;-82
2023/10/11 03:50:51;;;;;;;;;;;18.30;65.50;;;;;;5073195;28;20409;-81
2023/10/11 03:53:17;;;;;;;;;;;18.30;65.40;;;;;;5077886;28;20045;-81
2023/10/11 03:55:46;;;;;;;;;;;18.30;65.10;;;;;;5071636;28;20395;-78
2023/10/11 03:58:22;;;;;;;;;;;18.30;65.80;;;;;;5072137;28;20012;-81
2023/10/11 04:00:48;;;;;;;;;;;18.30;65.20;;;;;;5066262;28;20285;-81
2023/10/11 04:03:17;;;;;;;;;;;18.30;65.70;;;;;;5068182;28;19912;-79
2023/10/11 04:05:47;;;;;;;;;;;18.30;65.50;;;;;;5065503;28;19913;-81
2023/10/11 04:08:19;;;;;;;;;;;18.20;65.50;;;;;;5068362;28;19975;-80
2023/10/11 04:10:49;;;;;;;;;;;18.20;65.60;;;;;;5066555;28;20048;-79
2023/10/11 04:13:15;;;;;;;;;;;18.20;65.80;;;;;;5069896;28;19912;-80
2023/10/11 04:15:49;;;;;;;;;;;18.20;65.50;;;;;;5073241;28;19921;-79
2023/10/11 04:18:20;;;;;;;;;;;18.20;65.30;;;;;;5084942;28;19904;-80
2023/10/11 04:21:12;;;;;;;;;;;18.20;65.50;;;;;;5079825;28;19917;-79
2023/10/11 04:23:39;;;;;;;;;;;18.10;65.90;;;;;;5084348;28;19912;-81
2023/10/11 04:26:08;;;;;;;;;;;18.10;65.80;;;;;;5087108;28;19912;-78
2023/10/11 04:28:34;;;;;;;;;;;18.00;66.30;;;;;;5102985;28;20275;-80
2023/10/11 04:33:50;;;;;;;;;;;18.10;65.70;;;;;;5078602;28;19938;-79
2023/10/11 04:36:20;;;;;;;;;;;18.10;66.00;;;;;;5080322;28;20425;-80
2023/10/11 04:38:49;;;;;;;;;;;18.00;66.00;;;;;;5081493;28;19920;-80
2023/10/11 04:41:16;;;;;;;;;;;18.10;65.80;;;;;;5087166;28;19947;-86
2023/10/11 04:43:50;;;;;;;;;;;18.10;65.50;;;;;;5088318;28;20363;-80
2023/10/11 04:46:16;;;;;;;;;;;18.10;65.70;;;;;;5078751;28;19921;-81
2023/10/11 04:48:44;;;;;;;;;;;18.10;65.70;;;;;;5083550;28;19912;-81
2023/10/11 04:53:58;;;;;;;;;;;18.00;65.80;;;;;;5083516;28;20406;-81
2023/10/11 04:59:17;;;;;;;;;;;18.00;65.70;;;;;;5085704;28;19920;-80
2023/10/11 05:04:14;;;;;;;;;;;18.10;65.50;;;;;;5089071;28;19924;-79
2023/10/11 05:06:41;;;;;;;;;;;18.10;65.40;;;;;;5087750;28;19912;-81
2023/10/11 05:09:14;;;;;;;;;;;18.10;65.50;;;;;;5094669;28;20005;-80
2023/10/11 05:11:50;;;;;;;;;;;18.00;65.60;;;;;;5093918;28;19928;-81
2023/10/11 05:19:47;;;;;;;;;;;18.00;65.80;;;;;;5087585;28;19924;-82
2023/10/11 05:22:23;;;;;;;;;;;17.90;65.70;;;;;;5094273;28;19912;-82
2023/10/11 05:51:29;;;;;;;;;;;17.90;65.30;;;;;;5089018;28;19990;-81
2023/10/11 05:53:55;;;;;;;;;;;17.90;65.20;;;;;;5083946;28;19912;-81
2023/10/11 05:56:21;;;;;;;;;;;17.80;65.50;;;;;;5088626;28;19963;-81
2023/10/11 05:58:51;;;;;;;;;;;17.80;65.70;;;;;;5086866;28;20431;-81
2023/10/11 06:01:19;;;;;;;;;;;17.80;65.50;;;;;;5085063;28;19920;-82
2023/10/11 06:03:44;;;;;;;;;;;17.80;65.40;;;;;;5088110;28;19916;-80
2023/10/11 06:08:57;;;;;;;;;;;17.90;65.20;;;;;;5084027;28;19958;-82
2023/10/11 06:11:28;;;;;;;;;;;17.80;65.30;;;;;;5074369;28;20347;-81
2023/10/11 06:13:54;;;;;;;;;;;17.90;65.10;;;;;;5074722;28;19916;-81
2023/10/11 06:16:22;;;;;;;;;;;17.80;65.20;;;;;;5078034;28;19984;-82
2023/10/11 06:18:57;;;;;;;;;;;17.80;65.30;;;;;;5073028;28;19920;-82
2023/10/11 06:21:33;;;;;;;;;;;17.90;65.50;;;;;;5076725;28;19924;-81
2023/10/11 06:24:00;;;;;;;;;;;17.90;65.40;;;;;;5081350;28;19912;-82
2023/10/11 06:26:28;;;;;;;;;;;17.90;65.10;;;;;;5081020;28;20066;-80
2023/10/11 06:29:03;;;;;;;;;;;17.90;64.90;;;;;;5079795;28;19978;-82
2023/10/11 06:31:33;;;;;;;;;;;17.90;64.70;;;;;;5076704;28;19913;-82
2023/10/11 06:34:03;;;;;;;;;;;18.00;64.70;;;;;;5076056;28;20046;-82
2023/10/11 06:36:30;;;;;;;;;;;18.00;64.20;;;;;;5078496;28;19962;-81
2023/10/11 06:38:55;;;;;;;;;;;18.10;64.20;;;;;;5078055;28;19913;-81
2023/10/11 06:44:18;;;;;;;;;;;18.00;64.20;;;;;;5062992;28;19966;-80
2023/10/11 06:46:46;;;;;;;;;;;18.00;64.30;;;;;;5078701;28;19912;-82
2023/10/11 06:49:14;;;;;;;;;;;18.10;64.00;;;;;;5076965;28;19916;-80
2023/10/11 06:51:41;;;;;;;;;;;18.00;64.70;;;;;;5077351;28;19920;-81
2023/10/11 06:54:07;;;;;;;;;;;18.00;64.40;;;;;;5073113;28;19923;-81
2023/10/11 06:56:32;;;;;;;;;;;18.10;64.40;;;;;;5077563;28;19955;-82
2023/10/11 06:59:00;;;;;;;;;;;18.10;64.60;;;;;;5075305;28;19912;-86
2023/10/11 07:01:30;;;;;;;;;;;18.20;64.10;;;;;;5077485;28;19944;-87
2023/10/11 07:03:57;;;;;;;;;;;18.10;64.20;;;;;;5074581;28;20357;-86
2023/10/11 07:06:22;;;;;;;;;;;18.20;64.00;;;;;;5072262;28;20285;-86
2023/10/11 07:08:53;;;;;;;;;;;18.30;64.10;;;;;;5069490;28;19916;-88
2023/10/11 07:12:28;;;;;;;;;;;18.40;63.30;;;;;;5070621;28;19920;-87
2023/10/11 07:14:16;;;;;;;;;;;18.40;63.40;;;;;;5061842;28;20412;-88
2023/10/11 07:17:14;;;;;;;;;;;18.40;63.20;;;;;;5074584;28;19913;-88
2023/10/11 07:19:59;;;;;;;;;;;18.50;62.90;;;;;;5016265;28;20033;-89
2023/10/11 07:22:39;;;;;;;;;;;18.60;62.70;;;;;;5002995;28;19936;-86
2023/10/11 07:27:53;;;;;;;;;;;18.60;62.50;;;;;;5079685;28;20392;-89
2023/10/11 07:30:25;;;;;;;;;;;18.70;62.00;;;;;;5076595;28;19912;-89
2023/10/11 07:33:04;;;;;;;;;;;18.80;62.10;;;;;;5077638;28;20007;-89
2023/10/11 07:35:48;;;;;;;;;;;18.90;62.00;;;;;;5075367;28;19920;-90
2023/10/11 07:41:04;;;;;;;;;;;18.90;61.80;;;;;;5050765;28;19913;-87
2023/10/11 07:43:42;;;;;;;;;;;19.00;61.80;;;;;;5072488;28;20047;-88
2023/10/11 07:46:13;;;;;;;;;;;19.00;61.30;;;;;;5071318;28;19956;-90
2023/10/11 07:49:09;;;;;;;;;;;19.10;61.10;;;;;;5077094;28;19913;-90
2023/10/11 07:51:34;;;;;;;;;;;19.10;61.40;;;;;;5069134;28;20312;-87
2023/10/11 07:54:19;;;;;;;;;;;19.20;61.30;;;;;;5072337;28;19971;-88
2023/10/11 07:56:49;;;;;;;;;;;19.20;61.20;;;;;;5069965;28;19958;-80
2023/10/11 07:59:14;;;;;;;;;;;19.20;60.80;;;;;;5075920;28;19913;-82
2023/10/11 08:01:43;;;;;;;;;;;19.30;60.40;;;;;;5083339;28;19942;-81
2023/10/11 08:04:09;;;;;;;;;;;19.30;60.50;;;;;;5078015;28;19919;-82
2023/10/11 08:06:39;;;;;;;;;;;19.40;60.60;;;;;;5083089;28;19954;-81
2023/10/11 08:09:06;;;;;;;;;;;19.30;60.70;;;;;;5074472;28;20338;-83
2023/10/11 08:11:45;;;;;;;;;;;19.40;60.90;;;;;;5081573;28;19912;-82
2023/10/11 08:14:15;;;;;;;;;;;19.60;59.70;;;;;;5077765;28;19963;-82
2023/10/11 08:16:47;;;;;;;;;;;19.60;60.00;;;;;;5084610;28;19913;-82
2023/10/11 08:19:13;;;;;;;;;;;19.60;59.40;;;;;;5076677;28;19916;-82
2023/10/11 08:21:38;;;;;;;;;;;19.70;59.70;;;;;;5074601;28;19992;-82
2023/10/11 08:24:06;;;;;;;;;;;19.70;59.70;;;;;;5075079;28;19958;-81
2023/10/11 08:26:42;;;;;;;;;;;19.80;60.00;;;;;;5069845;28;19936;-81
2023/10/11 08:29:27;;;;;;;;;;;19.80;59.80;;;;;;5075250;28;19979;-87
2023/10/11 08:31:56;;;;;;;;;;;19.80;59.70;;;;;;5075774;28;20289;-81
2023/10/11 08:34:21;;;;;;;;;;;19.80;59.60;;;;;;5080975;28;19948;-82
2023/10/11 08:36:48;;;;;;;;;;;19.80;59.70;;;;;;5081627;28;19913;-83
2023/10/11 08:39:14;;;;;;;;;;;19.90;58.70;;;;;;5071319;28;19912;-83
2023/10/11 08:41:46;;;;;;;;;;;19.90;59.10;;;;;;5071594;28;19975;-86
2023/10/11 08:44:20;;;;;;;;;;;20.00;59.40;;;;;;5074452;28;19913;-87
2023/10/11 08:46:50;;;;;;;;;;;20.10;58.30;;;;;;5072981;28;19919;-87
2023/10/11 08:49:17;;;;;;;;;;;20.10;58.30;;;;;;5065807;28;19923;-88
2023/10/11 08:51:43;;;;;;;;;;;20.30;57.60;;;;;;5075079;28;19912;-87
2023/10/11 08:54:11;;;;;;;;;;;20.20;58.00;;;;;;5075499;28;19995;-86
2023/10/11 08:56:54;;;;;;;;;;;20.20;58.30;;;;;;5070508;28;19909;-88
2023/10/11 08:59:25;;;;;;;;;;;20.30;58.10;;;;;;5092507;28;19935;-86
2023/10/11 09:01:55;;;;;;;;;;;20.30;57.70;;;;;;5077090;28;19912;-85
2023/10/11 09:04:26;;;;;;;;;;;20.30;57.70;;;;;;5078688;28;20011;-86
2023/10/11 09:06:57;;;;;;;;;;;20.30;58.10;;;;;;5075872;28;19935;-85
2023/10/11 09:09:32;;;;;;;;;;;20.30;58.40;;;;;;5078815;28;19948;-85
2023/10/11 09:11:58;;;;;;;;;;;20.40;58.30;;;;;;5072198;28;19913;-84
2023/10/11 09:14:26;;;;;;;;;;;20.50;58.00;;;;;;5073292;28;19916;-85
2023/10/11 09:16:57;;;;;;;;;;;20.50;58.00;;;;;;5073521;28;19919;-86
2023/10/11 09:19:26;;;;;;;;;;;20.40;57.80;;;;;;5075401;28;19912;-87
2023/10/11 09:22:02;;;;;;;;;;;20.50;58.10;;;;;;5085072;28;19916;-87
2023/10/11 09:24:29;;;;;;;;;;;20.60;57.90;;;;;;5084650;28;19935;-85
2023/10/11 09:27:08;;;;;;;;;;;20.60;57.70;;;;;;5086978;28;19908;-87
2023/10/11 09:29:34;;;;;;;;;;;20.60;58.00;;;;;;5080959;28;19912;-87
2023/10/11 09:31:59;;;;;;;;;;;20.70;57.70;;;;;;5077380;28;20004;-86
2023/10/11 09:34:29;;;;;;;;;;;20.80;57.50;;;;;;5085773;28;19900;-87
2023/10/11 09:36:56;;;;;;;;;;;20.80;57.70;;;;;;5096859;28;19969;-84
2023/10/11 09:39:22;;;;;;;;;;;20.80;58.20;;;;;;5089258;28;19932;-86
2023/10/11 09:41:52;;;;;;;;;;;20.80;58.20;;;;;;5093804;28;19913;-86
2023/10/11 09:44:21;;;;;;;;;;;20.80;57.50;;;;;;5095867;28;19946;-85
2023/10/11 09:46:48;;;;;;;;;;;21.00;57.30;;;;;;5092196;28;19912;-86
2023/10/11 09:49:13;;;;;;;;;;;20.90;57.30;;;;;;5081742;28;19913;-86
2023/10/11 09:51:45;;;;;;;;;;;21.00;57.10;;;;;;5095699;28;19899;-86
2023/10/11 09:54:14;;;;;;;;;;;20.90;57.30;;;;;;5087577;28;19927;-85
2023/10/11 09:56:49;;;;;;;;;;;21.00;57.00;;;;;;5085201;28;19913;-85
2023/10/11 09:59:34;;;;;;;;;;;20.90;57.20;;;;;;5073941;28;19995;-86
2023/10/11 10:02:06;;;;;;;;;;;21.00;57.40;;;;;;5070048;28;19952;-86
2023/10/11 10:04:50;;;;;;;;;;;21.10;57.00;;;;;;5072077;28;19958;-87
2023/10/11 10:07:25;;;;;;;;;;;21.10;56.90;;;;;;5069305;28;19919;-87
2023/10/11 10:09:52;;;;;;;;;;;21.20;56.40;;;;;;5065572;28;19912;-85
2023/10/11 10:12:22;;;;;;;;;;;21.20;56.50;;;;;;5070897;28;19913;-86
2023/10/11 10:15:02;;;;;;;;;;;21.30;57.10;;;;;;5072935;28;19916;-86
2023/10/11 10:17:28;;;;;;;;;;;21.20;57.00;;;;;;5072509;28;20386;-87
2023/10/11 10:19:59;;;;;;;;;;;21.30;56.90;;;;;;5074739;28;20015;-86
2023/10/11 10:22:27;;;;;;;;;;;21.40;56.40;;;;;;5074849;28;20340;-87
2023/10/11 10:24:56;;;;;;;;;;;21.50;56.30;;;;;;5073938;28;20462;-86
2023/10/11 10:27:34;;;;;;;;;;;21.50;56.40;;;;;;5070972;28;19919;-86
2023/10/11 10:30:00;;;;;;;;;;;21.70;56.70;;;;;;5073473;28;19917;-87
2023/10/11 10:32:26;;;;;;;;;;;21.70;56.20;;;;;;5076209;28;19983;-86
2023/10/11 10:35:16;;;;;;;;;;;21.70;55.50;;;;;;5071805;28;20378;-85
2023/10/11 10:37:55;;;;;;;;;;;21.80;56.00;;;;;;5070742;28;19916;-86
2023/10/11 10:40:25;;;;;;;;;;;21.70;56.40;;;;;;5068281;28;19912;-87
2023/10/11 10:43:08;;;;;;;;;;;21.70;56.30;;;;;;5090305;28;19909;-87
2023/10/11 10:45:35;;;;;;;;;;;21.70;56.80;;;;;;5087228;28;19913;-84
2023/10/11 10:48:22;;;;;;;;;;;21.60;56.20;;;;;;5073552;28;19916;-86
2023/10/11 10:50:49;;;;;;;;;;;21.50;56.50;;;;;;5069803;28;19912;-86
2023/10/11 10:53:17;;;;;;;;;;;21.60;56.80;;;;;;5073573;28;19913;-86
2023/10/11 10:55:43;;;;;;;;;;;21.60;56.90;;;;;;5076203;28;19912;-86
2023/10/11 10:58:16;;;;;;;;;;;21.70;57.10;;;;;;5076242;28;19962;-85
2023/10/11 11:00:43;;;;;;;;;;;21.70;56.50;;;;;;5072524;28;19965;-85
2023/10/11 11:03:18;;;;;;;;;;;21.70;56.70;;;;;;5072994;28;19919;-85
2023/10/11 11:05:56;;;;;;;;;;;21.80;56.80;;;;;;5074773;28;19913;-86
2023/10/11 11:08:27;;;;;;;;;;;21.80;57.20;;;;;;5071315;28;19913;-85
2023/10/11 11:13:48;;;;;;;;;;;21.80;57.30;;;;;;5070970;28;20014;-86
2023/10/11 11:16:26;;;;;;;;;;;22.00;57.10;;;;;;5071162;28;20301;-86
2023/10/11 11:18:51;;;;;;;;;;;22.00;56.50;;;;;;5073716;28;19913;-86
2023/10/11 11:21:17;;;;;;;;;;;22.10;56.90;;;;;;5074954;28;19919;-86
2023/10/11 11:23:44;;;;;;;;;;;22.10;56.30;;;;;;5070464;28;20302;-86
2023/10/11 11:26:15;;;;;;;;;;;22.10;56.60;;;;;;5072921;28;19919;-85
2023/10/11 11:28:44;;;;;;;;;;;22.20;56.60;;;;;;5074765;28;19914;-85
2023/10/11 11:33:48;;;;;;;;;;;22.30;56.80;;;;;;5071355;28;19919;-87
2023/10/11 11:36:30;;;;;;;;;;;22.30;56.60;;;;;;5075833;28;19912;-86
2023/10/11 11:39:17;;;;;;;;;;;22.30;56.70;;;;;;5076224;28;20009;-86
2023/10/11 11:41:57;;;;;;;;;;;22.40;57.30;;;;;;5072657;28;20050;-87
2023/10/11 11:44:27;;;;;;;;;;;22.60;56.40;;;;;;5071106;28;19912;-86
2023/10/11 11:46:54;;;;;;;;;;;22.60;56.00;;;;;;5072931;28;19923;-87
2023/10/11 11:49:20;;;;;;;;;;;22.50;56.20;;;;;;5070088;28;19923;-86
2023/10/11 11:51:47;;;;;;;;;;;22.60;56.10;;;;;;5069626;28;19919;-87
2023/10/11 11:54:17;;;;;;;;;;;22.60;56.80;;;;;;5073044;28;20562;-86
2023/10/11 11:56:43;;;;;;;;;;;22.60;57.10;;;;;;5074184;28;19955;-87
2023/10/11 11:59:17;;;;;;;;;;;22.70;57.10;;;;;;5068152;28;19912;-87
2023/10/11 12:02:19;;;;;;;;;;;22.70;57.30;;;;;;5075236;28;20345;-83
2023/10/11 12:04:38;;;;;;;;;;;22.80;57.00;;;;;;5063552;28;19963;-86
2023/10/11 12:07:09;;;;;;;;;;;22.90;56.50;;;;;;5071066;28;19917;-85
2023/10/11 12:09:35;;;;;;;;;;;22.80;57.20;;;;;;5073637;28;19913;-86
2023/10/11 12:12:05;;;;;;;;;;;22.80;57.00;;;;;;5071943;28;20329;-86
2023/10/11 12:14:31;;;;;;;;;;;22.80;56.90;;;;;;5071878;28;19924;-85
2023/10/11 12:16:57;;;;;;;;;;;22.90;57.10;;;;;;5068296;28;20302;-85
2023/10/11 12:19:22;;;;;;;;;;;22.90;57.10;;;;;;5066275;28;20373;-86
2023/10/11 12:21:51;;;;;;;;;;;22.80;57.50;;;;;;5072998;28;19942;-80
2023/10/11 12:24:16;;;;;;;;;;;22.80;57.70;;;;;;5068401;28;19921;-86
2023/10/11 12:26:42;;;;;;;;;;;22.80;57.50;;;;;;5068804;28;19936;-86
2023/10/11 12:29:18;;;;;;;;;;;22.80;57.60;;;;;;5073134;28;19908;-85
2023/10/11 12:31:44;;;;;;;;;;;22.70;58.20;;;;;;5067897;28;19924;-86
2023/10/11 12:34:10;;;;;;;;;;;22.70;57.80;;;;;;5065759;28;20079;-85
2023/10/11 12:36:39;;;;;;;;;;;22.70;57.70;;;;;;5069242;28;19960;-86
2023/10/11 12:39:06;;;;;;;;;;;22.70;58.00;;;;;;5066492;28;19931;-86
2023/10/11 12:41:39;;;;;;;;;;;22.70;58.00;;;;;;5068608;28;19912;-86
2023/10/11 12:44:07;;;;;;;;;;;22.70;58.00;;;;;;5066398;28;19966;-85
2023/10/11 12:46:33;;;;;;;;;;;22.80;58.10;;;;;;5063584;28;19920;-84
2023/10/11 12:48:59;;;;;;;;;;;22.80;58.40;;;;;;5072893;28;19962;-86
2023/10/11 12:51:25;;;;;;;;;;;22.80;58.40;;;;;;5071231;28;20400;-86
2023/10/11 12:53:54;;;;;;;;;;;22.80;58.60;;;;;;5070379;28;19913;-86
2023/10/11 12:56:29;;;;;;;;;;;22.80;58.50;;;;;;5070322;28;19923;-86
2023/10/11 12:58:57;;;;;;;;;;;22.90;58.20;;;;;;5066918;28;19935;-87
2023/10/11 13:01:36;;;;;;;;;;;22.90;58.00;;;;;;5062342;28;19919;-85
2023/10/11 13:04:09;;;;;;;;;;;22.80;58.40;;;;;;5068093;28;19920;-86
2023/10/11 13:06:38;;;;;;;;;;;22.90;58.70;;;;;;5073081;28;20469;-86
2023/10/11 13:09:13;;;;;;;;;;;22.90;58.50;;;;;;5063951;28;20735;-88
2023/10/11 13:11:44;;;;;;;;;;;23.00;57.90;;;;;;5073278;28;19912;-88
2023/10/11 13:14:11;;;;;;;;;;;23.00;57.70;;;;;;5075189;28;19927;-86
2023/10/11 13:16:38;;;;;;;;;;;22.90;57.60;;;;;;5073294;28;19989;-87
2023/10/11 13:19:03;;;;;;;;;;;22.90;58.30;;;;;;5073959;28;19935;-88
2023/10/11 13:21:44;;;;;;;;;;;22.90;58.60;;;;;;5116678;27;19922;-85
2023/10/11 13:24:12;;;;;;;;;;;23.00;57.90;;;;;;5118786;28;19912;-85
2023/10/11 13:26:42;;;;;;;;;;;22.90;58.10;;;;;;5118868;28;19954;-85
2023/10/11 13:29:08;;;;;;;;;;;22.90;58.60;;;;;;5121132;28;19951;-85
2023/10/11 13:31:34;;;;;;;;;;;22.80;58.60;;;;;;5105334;28;19919;-85
2023/10/11 13:34:05;;;;;;;;;;;22.80;58.90;;;;;;5116872;28;20366;-85
2023/10/11 13:36:33;;;;;;;;;;;22.80;58.80;;;;;;5126938;28;19908;-85
2023/10/11 13:39:02;;;;;;;;;;;22.90;58.60;;;;;;5109557;28;19920;-84
2023/10/11 13:41:29;;;;;;;;;;;22.90;58.80;;;;;;5121555;28;19919;-85
2023/10/11 13:43:55;;;;;;;;;;;22.90;59.10;;;;;;5129245;28;19915;-85
2023/10/11 13:46:22;;;;;;;;;;;23.00;58.70;;;;;;5114322;28;20010;-85
2023/10/11 13:48:49;;;;;;;;;;;23.00;58.60;;;;;;5101683;28;19985;-85
2023/10/11 13:51:18;;;;;;;;;;;23.10;58.40;;;;;;5110543;28;19916;-84
2023/10/11 13:53:43;;;;;;;;;;;23.20;57.90;;;;;;5115376;28;19951;-85
2023/10/11 13:56:14;;;;;;;;;;;23.20;57.50;;;;;;5107801;28;19912;-87
2023/10/11 13:58:45;;;;;;;;;;;23.30;57.10;;;;;;5107127;28;19928;-86
2023/10/11 14:01:36;;;;;;;;;;;23.20;57.90;;;;;;5112875;28;19967;-86
2023/10/11 14:04:12;;;;;;;;;;;23.20;58.40;;;;;;5116383;28;20004;-86
2023/10/11 14:06:46;;;;;;;;;;;23.30;58.30;;;;;;5102302;28;19927;-86
2023/10/11 14:09:18;;;;;;;;;;;23.40;58.00;;;;;;5116034;28;19919;-86
2023/10/11 14:11:46;;;;;;;;;;;23.60;57.20;;;;;;5115648;28;19919;-85
2023/10/11 14:14:12;;;;;;;;;;;23.60;57.40;;;;;;5108086;28;19912;-85
2023/10/11 14:16:38;;;;;;;;;;;23.60;57.30;;;;;;5108054;28;19925;-85
2023/10/11 14:19:08;;;;;;;;;;;23.50;57.40;;;;;;5117384;28;19999;-85
2023/10/11 14:21:40;;;;;;;;;;;23.50;57.50;;;;;;5104402;28;20003;-85
2023/10/11 14:24:06;;;;;;;;;;;23.30;57.90;;;;;;5117525;28;19912;-85
2023/10/11 14:26:33;;;;;;;;;;;23.30;58.20;;;;;;5122558;28;19950;-85
2023/10/11 14:28:59;;;;;;;;;;;23.30;58.30;;;;;;5126589;28;19935;-85
2023/10/11 14:31:24;;;;;;;;;;;23.20;58.30;;;;;;5108403;28;19928;-85
2023/10/11 14:33:52;;;;;;;;;;;23.30;58.50;;;;;;5106939;28;20344;-85
2023/10/11 14:36:23;;;;;;;;;;;23.30;58.30;;;;;;5092329;28;19912;-85
2023/10/11 14:38:51;;;;;;;;;;;23.30;58.60;;;;;;5102838;28;19970;-85
2023/10/11 14:41:21;;;;;;;;;;;23.10;58.70;;;;;;5103758;28;20376;-86
2023/10/11 14:43:47;;;;;;;;;;;23.10;59.00;;;;;;5102335;28;19976;-85
2023/10/11 14:46:13;;;;;;;;;;;23.10;59.30;;;;;;5104213;28;19934;-86
2023/10/11 14:48:39;;;;;;;;;;;23.10;59.40;;;;;;5103105;28;19911;-86
2023/10/11 14:51:05;;;;;;;;;;;23.10;59.40;;;;;;5104160;28;19912;-85
2023/10/11 14:53:33;;;;;;;;;;;23.10;59.80;;;;;;5098761;28;19956;-85
2023/10/11 14:56:09;;;;;;;;;;;23.10;59.80;;;;;;5090426;28;19912;-85
2023/10/11 14:58:35;;;;;;;;;;;23.00;60.20;;;;;;5105724;28;19961;-85
2023/10/11 15:01:07;;;;;;;;;;;23.00;60.10;;;;;;5104718;28;19947;-85
2023/10/11 15:03:35;;;;;;;;;;;23.00;60.40;;;;;;5112569;28;19916;-85
2023/10/11 15:06:08;;;;;;;;;;;23.00;60.20;;;;;;5106192;28;19916;-86
2023/10/11 15:08:42;;;;;;;;;;;23.00;60.40;;;;;;5108880;28;19911;-86
2023/10/11 15:11:12;;;;;;;;;;;23.00;60.30;;;;;;5107066;28;19916;-86
2023/10/11 15:13:38;;;;;;;;;;;23.00;60.40;;;;;;5101490;28;19912;-85
2023/10/11 15:16:04;;;;;;;;;;;23.00;60.50;;;;;;5112416;28;19914;-85
2023/10/11 15:18:32;;;;;;;;;;;23.00;60.40;;;;;;5101084;28;19992;-85
2023/10/11 15:20:59;;;;;;;;;;;23.00;60.60;;;;;;5100291;28;19938;-85
2023/10/11 15:23:24;;;;;;;;;;;22.90;61.40;;;;;;5099632;28;19912;-85
2023/10/11 15:25:51;;;;;;;;;;;23.00;60.20;;;;;;5099810;28;20000;-85
2023/10/11 15:28:17;;;;;;;;;;;22.90;60.30;;;;;;5096482;28;19927;-84
2023/10/11 15:30:43;;;;;;;;;;;22.90;60.20;;;;;;5101411;28;19916;-83
2023/10/11 15:33:08;;;;;;;;;;;22.80;60.60;;;;;;5104506;28;19987;-83